sensor_id;sensor_type;location;lat;lon;timestamp;temperature;humidity
19152;DHT22;9708;53.114;9.388;2022-08-25T00:01:18;18.30;99.90
19152;DHT22;9708;53.114;9.388;2022-08-25T00:03:45;18.30;99.90
19152;DHT22;9708;53.114;9.388;2022-08-25T00:06:13;18.20;99.90
19152;DHT22;9708;53.114;9.388;2022-08-25T00:08:41;18.20;99.90
19152;DHT22;9708;53.114;9.388;2022-08-25T00:11:10;18.30;99.90
19152;DHT22;9708;53.114;9.388;2022-08-25T00:13:38;18.30;99.90
19152;DHT22;9708;53.114;9.388;2022-08-25T00:16:05;18.20;99.90
19152;DHT22;9708;53.114;9.388;2022-08-25T00:18:34;18.20;99.90
19152;DHT22;9708;53.114;9.388;2022-08-25T00:21:01;18.20;99.90
19152;DHT22;9708;53.114;9.388;2022-08-25T00:23:28;18.20;99.90
19152;DHT22;9708;53.114;9.388;2022-08-25T00:25:55;18.20;99.90
19152;DHT22;9708;53.114;9.388;2022-08-25T00:28:21;18.10;99.90
19152;DHT22;9708;53.114;9.388;2022-08-25T00:30:49;18.10;99.90
19152;DHT22;9708;53.114;9.388;2022-08-25T00:33:16;18.10;99.90
19152;DHT22;9708;53.114;9.388;2022-08-25T00:35:44;18.00;99.90
19152;DHT22;9708;53.114;9.388;2022-08-25T00:38:12;18.00;99.90
19152;DHT22;9708;53.114;9.388;2022-08-25T00:40:42;18.00;99.90
19152;DHT22;9708;53.114;9.388;2022-08-25T00:43:10;18.00;99.90
19152;DHT22;9708;53.114;9.388;2022-08-25T00:45:37;18.00;99.90
19152;DHT22;9708;53.114;9.388;2022-08-25T00:48:05;18.00;99.90
19152;DHT22;9708;53.114;9.388;2022-08-25T00:50:32;18.00;99.90
19152;DHT22;9708;53.114;9.388;2022-08-25T00:53:03;18.00;99.90
19152;DHT22;9708;53.114;9.388;2022-08-25T00:55:34;18.00;99.90
19152;DHT22;9708;53.114;9.388;2022-08-25T00:58:05;18.00;99.90
19152;DHT22;9708;53.114;9.388;2022-08-25T01:00:38;18.00;99.90
19152;DHT22;9708;53.114;9.388;2022-08-25T01:03:06;18.00;99.90
19152;DHT22;9708;53.114;9.388;2022-08-25T01:05:33;18.00;99.90
19152;DHT22;9708;53.114;9.388;2022-08-25T01:08:02;18.10;99.90
19152;DHT22;9708;53.114;9.388;2022-08-25T01:10:32;18.10;99.90
19152;DHT22;9708;53.114;9.388;2022-08-25T01:13:03;18.00;99.90
19152;DHT22;9708;53.114;9.388;2022-08-25T01:15:32;18.10;99.90
19152;DHT22;9708;53.114;9.388;2022-08-25T01:18:00;18.20;99.90
19152;DHT22;9708;53.114;9.388;2022-08-25T01:20:31;18.20;99.90
19152;DHT22;9708;53.114;9.388;2022-08-25T01:23:15;18.20;99.90
19152;DHT22;9708;53.114;9.388;2022-08-25T01:25:47;18.10;99.90
19152;DHT22;9708;53.114;9.388;2022-08-25T01:32:08;18.00;99.90
19152;DHT22;9708;53.114;9.388;2022-08-25T01:34:40;18.00;99.90
19152;DHT22;9708;53.114;9.388;2022-08-25T01:37:09;17.90;99.90
19152;DHT22;9708;53.114;9.388;2022-08-25T01:39:37;18.00;99.90
19152;DHT22;9708;53.114;9.388;2022-08-25T01:42:18;17.90;99.90
19152;DHT22;9708;53.114;9.388;2022-08-25T01:45:16;17.80;99.90
19152;DHT22;9708;53.114;9.388;2022-08-25T01:48:08;17.80;99.90
19152;DHT22;9708;53.114;9.388;2022-08-25T01:50:36;17.80;99.90
19152;DHT22;9708;53.114;9.388;2022-08-25T01:56:14;17.80;99.90
19152;DHT22;9708;53.114;9.388;2022-08-25T02:02:00;17.80;99.90
19152;DHT22;9708;53.114;9.388;2022-08-25T02:04:27;17.80;99.90
19152;DHT22;9708;53.114;9.388;2022-08-25T02:06:56;17.70;99.90
19152;DHT22;9708;53.114;9.388;2022-08-25T02:09:23;17.70;99.90
19152;DHT22;9708;53.114;9.388;2022-08-25T02:11:51;17.70;99.90
19152;DHT22;9708;53.114;9.388;2022-08-25T02:14:18;17.60;99.90
19152;DHT22;9708;53.114;9.388;2022-08-25T02:16:47;17.60;99.90
19152;DHT22;9708;53.114;9.388;2022-08-25T02:19:14;17.60;99.90
19152;DHT22;9708;53.114;9.388;2022-08-25T02:22:15;17.60;99.90
19152;DHT22;9708;53.114;9.388;2022-08-25T02:25:10;17.50;99.90
19152;DHT22;9708;53.114;9.388;2022-08-25T02:27:39;17.50;99.90
19152;DHT22;9708;53.114;9.388;2022-08-25T02:30:06;17.40;99.90
19152;DHT22;9708;53.114;9.388;2022-08-25T02:32:33;17.40;99.90
19152;DHT22;9708;53.114;9.388;2022-08-25T02:35:08;17.40;99.90
19152;DHT22;9708;53.114;9.388;2022-08-25T02:37:35;17.40;99.90
19152;DHT22;9708;53.114;9.388;2022-08-25T02:40:03;17.40;99.90
19152;DHT22;9708;53.114;9.388;2022-08-25T02:42:30;17.40;99.90
19152;DHT22;9708;53.114;9.388;2022-08-25T02:44:59;17.40;99.90
19152;DHT22;9708;53.114;9.388;2022-08-25T02:47:25;17.40;99.90
19152;DHT22;9708;53.114;9.388;2022-08-25T02:49:52;17.40;99.90
19152;DHT22;9708;53.114;9.388;2022-08-25T02:52:20;17.40;99.90
19152;DHT22;9708;53.114;9.388;2022-08-25T02:54:46;17.30;99.90
19152;DHT22;9708;53.114;9.388;2022-08-25T02:57:13;17.30;99.90
19152;DHT22;9708;53.114;9.388;2022-08-25T02:59:40;17.20;99.90
19152;DHT22;9708;53.114;9.388;2022-08-25T03:02:08;17.20;99.90
19152;DHT22;9708;53.114;9.388;2022-08-25T03:04:35;17.20;99.90
19152;DHT22;9708;53.114;9.388;2022-08-25T03:07:02;17.20;99.90
19152;DHT22;9708;53.114;9.388;2022-08-25T03:09:30;17.30;99.90
19152;DHT22;9708;53.114;9.388;2022-08-25T03:11:56;17.20;99.90
19152;DHT22;9708;53.114;9.388;2022-08-25T03:14:23;17.20;99.90
19152;DHT22;9708;53.114;9.388;2022-08-25T03:16:50;17.10;99.90
19152;DHT22;9708;53.114;9.388;2022-08-25T03:19:18;17.10;99.90
19152;DHT22;9708;53.114;9.388;2022-08-25T03:21:45;17.10;99.90
19152;DHT22;9708;53.114;9.388;2022-08-25T03:24:12;17.00;99.90
19152;DHT22;9708;53.114;9.388;2022-08-25T03:26:38;17.00;99.90
19152;DHT22;9708;53.114;9.388;2022-08-25T03:29:21;17.10;99.90
19152;DHT22;9708;53.114;9.388;2022-08-25T03:31:49;17.00;99.90
19152;DHT22;9708;53.114;9.388;2022-08-25T03:34:18;17.00;99.90
19152;DHT22;9708;53.114;9.388;2022-08-25T03:36:46;17.00;99.90
19152;DHT22;9708;53.114;9.388;2022-08-25T03:39:14;17.00;99.90
19152;DHT22;9708;53.114;9.388;2022-08-25T03:41:41;17.00;99.90
19152;DHT22;9708;53.114;9.388;2022-08-25T03:44:09;17.00;99.90
19152;DHT22;9708;53.114;9.388;2022-08-25T03:46:38;17.00;99.90
19152;DHT22;9708;53.114;9.388;2022-08-25T03:49:07;17.00;99.90
19152;DHT22;9708;53.114;9.388;2022-08-25T03:51:36;16.90;99.90
19152;DHT22;9708;53.114;9.388;2022-08-25T03:54:05;16.90;99.90
19152;DHT22;9708;53.114;9.388;2022-08-25T03:56:32;16.90;99.90
19152;DHT22;9708;53.114;9.388;2022-08-25T03:58:59;16.90;99.90
19152;DHT22;9708;53.114;9.388;2022-08-25T04:01:27;16.90;99.90
19152;DHT22;9708;53.114;9.388;2022-08-25T04:03:53;16.90;99.90
19152;DHT22;9708;53.114;9.388;2022-08-25T04:06:20;16.90;99.90
19152;DHT22;9708;53.114;9.388;2022-08-25T04:08:49;16.90;99.90
19152;DHT22;9708;53.114;9.388;2022-08-25T04:11:19;16.90;99.90
19152;DHT22;9708;53.114;9.388;2022-08-25T04:13:47;16.90;99.90
19152;DHT22;9708;53.114;9.388;2022-08-25T04:16:15;16.90;99.90
19152;DHT22;9708;53.114;9.388;2022-08-25T04:18:43;16.90;99.90
19152;DHT22;9708;53.114;9.388;2022-08-25T04:21:11;16.90;99.90
19152;DHT22;9708;53.114;9.388;2022-08-25T04:23:40;16.90;99.90
19152;DHT22;9708;53.114;9.388;2022-08-25T04:26:10;16.90;99.90
19152;DHT22;9708;53.114;9.388;2022-08-25T04:28:37;17.00;99.90
19152;DHT22;9708;53.114;9.388;2022-08-25T04:31:05;17.00;99.90
19152;DHT22;9708;53.114;9.388;2022-08-25T04:33:32;17.00;99.90
19152;DHT22;9708;53.114;9.388;2022-08-25T04:35:59;17.00;99.90
19152;DHT22;9708;53.114;9.388;2022-08-25T04:38:26;17.10;99.90
19152;DHT22;9708;53.114;9.388;2022-08-25T04:40:55;17.10;99.90
19152;DHT22;9708;53.114;9.388;2022-08-25T04:43:23;17.10;99.90
19152;DHT22;9708;53.114;9.388;2022-08-25T04:45:52;17.20;99.90
19152;DHT22;9708;53.114;9.388;2022-08-25T04:48:20;17.20;99.90
19152;DHT22;9708;53.114;9.388;2022-08-25T04:50:47;17.30;99.90
19152;DHT22;9708;53.114;9.388;2022-08-25T04:53:14;17.30;99.90
19152;DHT22;9708;53.114;9.388;2022-08-25T04:55:42;17.40;99.90
19152;DHT22;9708;53.114;9.388;2022-08-25T04:58:10;17.50;99.90
19152;DHT22;9708;53.114;9.388;2022-08-25T05:00:38;17.50;99.90
19152;DHT22;9708;53.114;9.388;2022-08-25T05:03:05;17.60;99.90
19152;DHT22;9708;53.114;9.388;2022-08-25T05:05:35;17.70;99.90
19152;DHT22;9708;53.114;9.388;2022-08-25T05:08:03;17.70;99.90
19152;DHT22;9708;53.114;9.388;2022-08-25T05:10:29;17.80;99.90
19152;DHT22;9708;53.114;9.388;2022-08-25T05:12:56;18.00;99.90
19152;DHT22;9708;53.114;9.388;2022-08-25T05:15:24;18.70;99.90
19152;DHT22;9708;53.114;9.388;2022-08-25T05:18:10;19.60;99.90
19152;DHT22;9708;53.114;9.388;2022-08-25T05:20:37;20.50;99.90
19152;DHT22;9708;53.114;9.388;2022-08-25T05:23:04;21.30;99.90
19152;DHT22;9708;53.114;9.388;2022-08-25T05:25:31;21.80;99.90
19152;DHT22;9708;53.114;9.388;2022-08-25T05:27:58;22.60;99.90
19152;DHT22;9708;53.114;9.388;2022-08-25T05:30:25;23.00;99.90
19152;DHT22;9708;53.114;9.388;2022-08-25T05:32:52;22.60;99.90
19152;DHT22;9708;53.114;9.388;2022-08-25T05:35:20;22.40;99.90
19152;DHT22;9708;53.114;9.388;2022-08-25T05:37:47;21.90;99.90
19152;DHT22;9708;53.114;9.388;2022-08-25T05:40:13;21.30;99.90
19152;DHT22;9708;53.114;9.388;2022-08-25T05:42:40;20.90;99.90
19152;DHT22;9708;53.114;9.388;2022-08-25T05:45:08;20.50;99.90
19152;DHT22;9708;53.114;9.388;2022-08-25T05:47:35;20.30;99.90
19152;DHT22;9708;53.114;9.388;2022-08-25T05:50:02;20.20;99.90
19152;DHT22;9708;53.114;9.388;2022-08-25T05:52:30;20.40;99.90
19152;DHT22;9708;53.114;9.388;2022-08-25T05:54:57;20.20;99.90
19152;DHT22;9708;53.114;9.388;2022-08-25T05:57:24;20.40;99.90
19152;DHT22;9708;53.114;9.388;2022-08-25T05:59:51;20.50;99.90
19152;DHT22;9708;53.114;9.388;2022-08-25T06:02:18;20.70;99.90
19152;DHT22;9708;53.114;9.388;2022-08-25T06:05:02;21.10;99.90
19152;DHT22;9708;53.114;9.388;2022-08-25T06:07:30;22.00;99.90
19152;DHT22;9708;53.114;9.388;2022-08-25T06:09:58;23.30;99.90
19152;DHT22;9708;53.114;9.388;2022-08-25T06:12:25;25.10;99.90
19152;DHT22;9708;53.114;9.388;2022-08-25T06:14:51;26.30;99.90
19152;DHT22;9708;53.114;9.388;2022-08-25T06:17:18;25.50;99.90
19152;DHT22;9708;53.114;9.388;2022-08-25T06:19:45;26.50;99.90
19152;DHT22;9708;53.114;9.388;2022-08-25T06:22:11;27.10;99.90
19152;DHT22;9708;53.114;9.388;2022-08-25T06:24:40;27.40;99.90
19152;DHT22;9708;53.114;9.388;2022-08-25T06:27:06;29.00;99.90
19152;DHT22;9708;53.114;9.388;2022-08-25T06:29:36;28.10;99.90
19152;DHT22;9708;53.114;9.388;2022-08-25T06:32:04;28.70;99.90
19152;DHT22;9708;53.114;9.388;2022-08-25T06:34:31;29.60;99.90
19152;DHT22;9708;53.114;9.388;2022-08-25T06:36:58;27.70;99.90
19152;DHT22;9708;53.114;9.388;2022-08-25T06:39:25;28.40;99.90
19152;DHT22;9708;53.114;9.388;2022-08-25T06:41:54;29.20;99.90
19152;DHT22;9708;53.114;9.388;2022-08-25T06:44:23;29.40;99.90
19152;DHT22;9708;53.114;9.388;2022-08-25T06:46:50;30.20;99.90
19152;DHT22;9708;53.114;9.388;2022-08-25T06:49:17;28.50;99.90
19152;DHT22;9708;53.114;9.388;2022-08-25T06:51:44;29.10;99.90
19152;DHT22;9708;53.114;9.388;2022-08-25T06:54:11;29.40;99.90
19152;DHT22;9708;53.114;9.388;2022-08-25T06:56:39;28.80;99.90
19152;DHT22;9708;53.114;9.388;2022-08-25T06:59:08;29.60;99.90
19152;DHT22;9708;53.114;9.388;2022-08-25T07:01:35;30.00;99.90
19152;DHT22;9708;53.114;9.388;2022-08-25T07:04:04;30.40;99.90
19152;DHT22;9708;53.114;9.388;2022-08-25T07:06:32;30.30;99.90
19152;DHT22;9708;53.114;9.388;2022-08-25T07:09:01;29.80;99.90
19152;DHT22;9708;53.114;9.388;2022-08-25T07:11:28;28.20;99.90
19152;DHT22;9708;53.114;9.388;2022-08-25T07:13:58;29.20;99.90
19152;DHT22;9708;53.114;9.388;2022-08-25T07:16:27;28.80;99.90
19152;DHT22;9708;53.114;9.388;2022-08-25T07:18:53;27.80;99.90
19152;DHT22;9708;53.114;9.388;2022-08-25T07:21:21;27.00;99.90
19152;DHT22;9708;53.114;9.388;2022-08-25T07:23:48;27.50;99.90
19152;DHT22;9708;53.114;9.388;2022-08-25T07:26:17;27.20;99.90
19152;DHT22;9708;53.114;9.388;2022-08-25T07:28:44;26.80;99.90
19152;DHT22;9708;53.114;9.388;2022-08-25T07:31:12;27.60;99.90
19152;DHT22;9708;53.114;9.388;2022-08-25T07:33:40;28.60;99.90
19152;DHT22;9708;53.114;9.388;2022-08-25T07:36:27;28.70;99.90
19152;DHT22;9708;53.114;9.388;2022-08-25T07:38:52;27.50;99.90
19152;DHT22;9708;53.114;9.388;2022-08-25T07:41:19;28.40;99.90
19152;DHT22;9708;53.114;9.388;2022-08-25T07:43:46;28.30;99.90
19152;DHT22;9708;53.114;9.388;2022-08-25T07:46:13;28.10;99.90
19152;DHT22;9708;53.114;9.388;2022-08-25T07:48:41;28.30;99.90
19152;DHT22;9708;53.114;9.388;2022-08-25T07:51:10;28.00;99.90
19152;DHT22;9708;53.114;9.388;2022-08-25T07:53:39;28.80;99.90
19152;DHT22;9708;53.114;9.388;2022-08-25T07:56:08;28.70;99.90
19152;DHT22;9708;53.114;9.388;2022-08-25T07:58:36;29.30;99.90
19152;DHT22;9708;53.114;9.388;2022-08-25T08:01:03;28.60;99.90
19152;DHT22;9708;53.114;9.388;2022-08-25T08:03:31;28.30;99.90
19152;DHT22;9708;53.114;9.388;2022-08-25T08:06:00;28.30;99.90
19152;DHT22;9708;53.114;9.388;2022-08-25T08:08:28;28.60;99.90
19152;DHT22;9708;53.114;9.388;2022-08-25T08:10:55;28.50;99.90
19152;DHT22;9708;53.114;9.388;2022-08-25T08:13:22;28.10;99.90
19152;DHT22;9708;53.114;9.388;2022-08-25T08:15:50;28.60;99.90
19152;DHT22;9708;53.114;9.388;2022-08-25T08:18:18;28.40;99.90
19152;DHT22;9708;53.114;9.388;2022-08-25T08:20:47;28.60;99.90
19152;DHT22;9708;53.114;9.388;2022-08-25T08:23:16;28.10;99.90
19152;DHT22;9708;53.114;9.388;2022-08-25T08:25:43;27.40;99.90
19152;DHT22;9708;53.114;9.388;2022-08-25T08:28:09;27.60;99.90
19152;DHT22;9708;53.114;9.388;2022-08-25T08:30:37;28.60;99.90
19152;DHT22;9708;53.114;9.388;2022-08-25T08:33:03;29.00;99.90
19152;DHT22;9708;53.114;9.388;2022-08-25T08:35:31;29.40;99.90
19152;DHT22;9708;53.114;9.388;2022-08-25T08:37:58;29.60;99.90
19152;DHT22;9708;53.114;9.388;2022-08-25T08:40:26;29.90;99.90
19152;DHT22;9708;53.114;9.388;2022-08-25T08:43:00;30.00;99.90
19152;DHT22;9708;53.114;9.388;2022-08-25T08:45:33;30.00;99.90
19152;DHT22;9708;53.114;9.388;2022-08-25T08:51:06;30.30;99.90
19152;DHT22;9708;53.114;9.388;2022-08-25T08:53:42;30.30;99.90
19152;DHT22;9708;53.114;9.388;2022-08-25T08:56:14;30.80;99.90
19152;DHT22;9708;53.114;9.388;2022-08-25T08:58:44;30.20;99.90
19152;DHT22;9708;53.114;9.388;2022-08-25T09:01:15;29.40;99.90
19152;DHT22;9708;53.114;9.388;2022-08-25T09:03:45;29.90;99.90
19152;DHT22;9708;53.114;9.388;2022-08-25T09:06:21;29.90;99.90
19152;DHT22;9708;53.114;9.388;2022-08-25T09:08:50;29.60;99.90
19152;DHT22;9708;53.114;9.388;2022-08-25T09:11:27;30.60;99.90
19152;DHT22;9708;53.114;9.388;2022-08-25T09:14:07;31.10;99.90
19152;DHT22;9708;53.114;9.388;2022-08-25T09:16:42;31.20;99.90
19152;DHT22;9708;53.114;9.388;2022-08-25T09:19:36;30.90;99.90
19152;DHT22;9708;53.114;9.388;2022-08-25T09:22:09;30.10;99.90
19152;DHT22;9708;53.114;9.388;2022-08-25T09:24:50;30.20;99.90
19152;DHT22;9708;53.114;9.388;2022-08-25T09:27:30;29.70;99.90
19152;DHT22;9708;53.114;9.388;2022-08-25T09:30:05;29.70;99.90
19152;DHT22;9708;53.114;9.388;2022-08-25T09:32:36;30.10;99.90
19152;DHT22;9708;53.114;9.388;2022-08-25T09:35:05;30.10;99.90
19152;DHT22;9708;53.114;9.388;2022-08-25T09:37:33;31.10;99.90
19152;DHT22;9708;53.114;9.388;2022-08-25T09:40:00;31.00;99.90
19152;DHT22;9708;53.114;9.388;2022-08-25T09:42:47;30.00;99.90
19152;DHT22;9708;53.114;9.388;2022-08-25T09:45:14;31.00;99.90
19152;DHT22;9708;53.114;9.388;2022-08-25T09:47:42;31.80;99.90
19152;DHT22;9708;53.114;9.388;2022-08-25T09:50:14;32.60;99.90
19152;DHT22;9708;53.114;9.388;2022-08-25T09:52:41;32.90;99.90
19152;DHT22;9708;53.114;9.388;2022-08-25T09:55:30;33.50;99.90
19152;DHT22;9708;53.114;9.388;2022-08-25T09:58:00;32.30;99.90
19152;DHT22;9708;53.114;9.388;2022-08-25T10:00:38;30.50;99.90
19152;DHT22;9708;53.114;9.388;2022-08-25T10:03:09;30.20;99.90
19152;DHT22;9708;53.114;9.388;2022-08-25T10:05:48;30.90;99.90
19152;DHT22;9708;53.114;9.388;2022-08-25T10:08:25;32.30;99.90
19152;DHT22;9708;53.114;9.388;2022-08-25T10:10:56;32.60;99.90
19152;DHT22;9708;53.114;9.388;2022-08-25T10:13:37;32.50;99.90
19152;DHT22;9708;53.114;9.388;2022-08-25T10:16:06;31.20;99.90
19152;DHT22;9708;53.114;9.388;2022-08-25T10:18:33;31.90;99.90
19152;DHT22;9708;53.114;9.388;2022-08-25T10:21:07;32.00;99.90
19152;DHT22;9708;53.114;9.388;2022-08-25T10:23:37;32.40;99.90
19152;DHT22;9708;53.114;9.388;2022-08-25T10:26:10;32.90;99.90
19152;DHT22;9708;53.114;9.388;2022-08-25T10:28:45;33.40;99.90
19152;DHT22;9708;53.114;9.388;2022-08-25T10:31:19;31.90;99.90
19152;DHT22;9708;53.114;9.388;2022-08-25T10:33:57;31.50;99.90
19152;DHT22;9708;53.114;9.388;2022-08-25T10:36:32;30.50;99.90
19152;DHT22;9708;53.114;9.388;2022-08-25T10:39:02;30.20;99.90
19152;DHT22;9708;53.114;9.388;2022-08-25T10:41:40;30.00;99.90
19152;DHT22;9708;53.114;9.388;2022-08-25T10:44:18;31.10;99.90
19152;DHT22;9708;53.114;9.388;2022-08-25T10:47:27;31.80;99.90
19152;DHT22;9708;53.114;9.388;2022-08-25T10:50:03;32.20;99.90
19152;DHT22;9708;53.114;9.388;2022-08-25T10:52:37;32.70;99.90
19152;DHT22;9708;53.114;9.388;2022-08-25T10:55:11;33.10;99.90
19152;DHT22;9708;53.114;9.388;2022-08-25T10:57:46;33.50;99.90
19152;DHT22;9708;53.114;9.388;2022-08-25T11:00:18;33.10;99.90
19152;DHT22;9708;53.114;9.388;2022-08-25T11:02:58;32.90;99.90
19152;DHT22;9708;53.114;9.388;2022-08-25T11:05:29;31.70;99.90
19152;DHT22;9708;53.114;9.388;2022-08-25T11:08:04;31.20;99.90
19152;DHT22;9708;53.114;9.388;2022-08-25T11:10:38;32.10;99.90
19152;DHT22;9708;53.114;9.388;2022-08-25T11:13:12;31.90;99.90
19152;DHT22;9708;53.114;9.388;2022-08-25T11:15:49;31.40;99.90
19152;DHT22;9708;53.114;9.388;2022-08-25T11:18:17;31.30;99.90
19152;DHT22;9708;53.114;9.388;2022-08-25T11:20:53;31.90;99.90
19152;DHT22;9708;53.114;9.388;2022-08-25T11:23:23;32.10;99.90
19152;DHT22;9708;53.114;9.388;2022-08-25T11:25:57;31.80;99.90
19152;DHT22;9708;53.114;9.388;2022-08-25T11:28:30;32.00;99.90
19152;DHT22;9708;53.114;9.388;2022-08-25T11:31:01;31.60;99.90
19152;DHT22;9708;53.114;9.388;2022-08-25T11:33:29;31.70;99.90
19152;DHT22;9708;53.114;9.388;2022-08-25T11:35:59;32.00;99.90
19152;DHT22;9708;53.114;9.388;2022-08-25T11:38:37;31.60;99.90
19152;DHT22;9708;53.114;9.388;2022-08-25T11:41:17;31.50;99.90
19152;DHT22;9708;53.114;9.388;2022-08-25T11:43:57;31.50;99.90
19152;DHT22;9708;53.114;9.388;2022-08-25T11:46:41;31.80;99.90
19152;DHT22;9708;53.114;9.388;2022-08-25T11:49:29;32.30;99.90
19152;DHT22;9708;53.114;9.388;2022-08-25T11:52:04;32.20;99.90
19152;DHT22;9708;53.114;9.388;2022-08-25T11:54:35;32.90;99.90
19152;DHT22;9708;53.114;9.388;2022-08-25T11:57:05;32.50;99.90
19152;DHT22;9708;53.114;9.388;2022-08-25T12:00:00;32.50;99.90
19152;DHT22;9708;53.114;9.388;2022-08-25T12:02:32;32.30;99.90
19152;DHT22;9708;53.114;9.388;2022-08-25T12:05:00;32.30;99.90
19152;DHT22;9708;53.114;9.388;2022-08-25T12:07:29;33.00;99.90
19152;DHT22;9708;53.114;9.388;2022-08-25T12:10:56;32.90;99.90
19152;DHT22;9708;53.114;9.388;2022-08-25T12:13:36;32.90;99.90
19152;DHT22;9708;53.114;9.388;2022-08-25T12:16:06;32.30;99.90
19152;DHT22;9708;53.114;9.388;2022-08-25T12:18:44;31.90;99.90
19152;DHT22;9708;53.114;9.388;2022-08-25T12:21:15;32.00;99.90
19152;DHT22;9708;53.114;9.388;2022-08-25T12:24:10;31.50;99.90
19152;DHT22;9708;53.114;9.388;2022-08-25T12:26:47;31.90;99.90
19152;DHT22;9708;53.114;9.388;2022-08-25T12:29:27;31.90;99.90
19152;DHT22;9708;53.114;9.388;2022-08-25T12:32:05;32.30;99.90
19152;DHT22;9708;53.114;9.388;2022-08-25T12:34:50;31.70;99.90
19152;DHT22;9708;53.114;9.388;2022-08-25T12:37:21;31.20;99.90
19152;DHT22;9708;53.114;9.388;2022-08-25T12:39:57;31.30;99.90
19152;DHT22;9708;53.114;9.388;2022-08-25T12:42:29;31.40;99.90
19152;DHT22;9708;53.114;9.388;2022-08-25T12:47:53;31.70;99.90
19152;DHT22;9708;53.114;9.388;2022-08-25T12:50:42;31.90;99.90
19152;DHT22;9708;53.114;9.388;2022-08-25T12:53:14;31.50;99.90
19152;DHT22;9708;53.114;9.388;2022-08-25T12:55:48;30.80;99.90
19152;DHT22;9708;53.114;9.388;2022-08-25T12:58:16;30.60;99.90
19152;DHT22;9708;53.114;9.388;2022-08-25T13:01:00;30.00;99.90
19152;DHT22;9708;53.114;9.388;2022-08-25T13:03:51;30.20;99.90
19152;DHT22;9708;53.114;9.388;2022-08-25T13:06:36;29.80;99.90
19152;DHT22;9708;53.114;9.388;2022-08-25T13:09:36;29.90;99.90
19152;DHT22;9708;53.114;9.388;2022-08-25T13:12:14;30.30;99.90
19152;DHT22;9708;53.114;9.388;2022-08-25T13:14:44;30.10;99.90
19152;DHT22;9708;53.114;9.388;2022-08-25T13:17:24;30.00;99.90
19152;DHT22;9708;53.114;9.388;2022-08-25T13:19:51;30.30;99.90
19152;DHT22;9708;53.114;9.388;2022-08-25T13:22:37;30.70;99.90
19152;DHT22;9708;53.114;9.388;2022-08-25T13:25:04;30.80;99.90
19152;DHT22;9708;53.114;9.388;2022-08-25T13:27:33;30.10;99.90
19152;DHT22;9708;53.114;9.388;2022-08-25T13:30:00;30.00;99.90
19152;DHT22;9708;53.114;9.388;2022-08-25T13:32:29;29.70;99.90
19152;DHT22;9708;53.114;9.388;2022-08-25T13:35:10;29.80;99.90
19152;DHT22;9708;53.114;9.388;2022-08-25T13:37:38;30.30;99.90
19152;DHT22;9708;53.114;9.388;2022-08-25T13:40:09;30.90;99.90
19152;DHT22;9708;53.114;9.388;2022-08-25T13:42:37;30.50;99.90
19152;DHT22;9708;53.114;9.388;2022-08-25T13:45:06;30.50;99.90
19152;DHT22;9708;53.114;9.388;2022-08-25T13:47:35;31.10;99.90
19152;DHT22;9708;53.114;9.388;2022-08-25T13:50:19;31.30;99.90
19152;DHT22;9708;53.114;9.388;2022-08-25T13:52:52;31.20;99.90
19152;DHT22;9708;53.114;9.388;2022-08-25T13:55:21;31.80;99.90
19152;DHT22;9708;53.114;9.388;2022-08-25T13:57:49;31.30;99.90
19152;DHT22;9708;53.114;9.388;2022-08-25T14:00:27;31.00;99.90
19152;DHT22;9708;53.114;9.388;2022-08-25T14:02:54;31.20;99.90
19152;DHT22;9708;53.114;9.388;2022-08-25T14:05:35;31.50;99.90
19152;DHT22;9708;53.114;9.388;2022-08-25T14:08:05;31.10;99.90
19152;DHT22;9708;53.114;9.388;2022-08-25T14:10:36;30.90;99.90
19152;DHT22;9708;53.114;9.388;2022-08-25T14:13:14;30.80;99.90
19152;DHT22;9708;53.114;9.388;2022-08-25T14:15:43;30.70;99.90
19152;DHT22;9708;53.114;9.388;2022-08-25T14:18:15;30.50;99.90
19152;DHT22;9708;53.114;9.388;2022-08-25T14:20:46;30.80;99.90
19152;DHT22;9708;53.114;9.388;2022-08-25T14:23:18;30.70;99.90
19152;DHT22;9708;53.114;9.388;2022-08-25T14:25:47;30.40;99.90
19152;DHT22;9708;53.114;9.388;2022-08-25T14:28:17;30.10;99.90
19152;DHT22;9708;53.114;9.388;2022-08-25T14:30:51;30.00;99.90
19152;DHT22;9708;53.114;9.388;2022-08-25T14:33:21;29.80;99.90
19152;DHT22;9708;53.114;9.388;2022-08-25T14:35:52;29.90;99.90
19152;DHT22;9708;53.114;9.388;2022-08-25T14:38:22;29.70;99.90
19152;DHT22;9708;53.114;9.388;2022-08-25T14:40:49;29.70;99.90
19152;DHT22;9708;53.114;9.388;2022-08-25T14:43:15;29.60;99.90
19152;DHT22;9708;53.114;9.388;2022-08-25T14:45:45;29.60;99.90
19152;DHT22;9708;53.114;9.388;2022-08-25T14:48:22;29.60;99.90
19152;DHT22;9708;53.114;9.388;2022-08-25T14:50:49;29.30;99.90
19152;DHT22;9708;53.114;9.388;2022-08-25T14:53:16;29.40;99.90
19152;DHT22;9708;53.114;9.388;2022-08-25T14:55:44;29.30;99.90
19152;DHT22;9708;53.114;9.388;2022-08-25T14:58:12;29.20;99.90
19152;DHT22;9708;53.114;9.388;2022-08-25T15:00:41;29.40;99.90
19152;DHT22;9708;53.114;9.388;2022-08-25T15:03:10;29.50;99.90
19152;DHT22;9708;53.114;9.388;2022-08-25T15:05:37;29.50;99.90
19152;DHT22;9708;53.114;9.388;2022-08-25T15:08:05;29.50;99.90
19152;DHT22;9708;53.114;9.388;2022-08-25T15:10:51;29.30;99.90
19152;DHT22;9708;53.114;9.388;2022-08-25T15:13:17;29.30;99.90
19152;DHT22;9708;53.114;9.388;2022-08-25T15:15:46;29.20;99.90
19152;DHT22;9708;53.114;9.388;2022-08-25T15:18:13;29.10;99.90
19152;DHT22;9708;53.114;9.388;2022-08-25T15:20:41;29.00;99.90
19152;DHT22;9708;53.114;9.388;2022-08-25T15:23:08;29.10;99.90
19152;DHT22;9708;53.114;9.388;2022-08-25T15:25:35;29.00;99.90
19152;DHT22;9708;53.114;9.388;2022-08-25T15:28:05;28.90;99.90
19152;DHT22;9708;53.114;9.388;2022-08-25T15:30:33;28.90;99.90
19152;DHT22;9708;53.114;9.388;2022-08-25T15:33:00;29.00;99.90
19152;DHT22;9708;53.114;9.388;2022-08-25T15:35:27;29.10;99.90
19152;DHT22;9708;53.114;9.388;2022-08-25T15:37:53;28.90;99.90
19152;DHT22;9708;53.114;9.388;2022-08-25T15:40:20;28.90;99.90
19152;DHT22;9708;53.114;9.388;2022-08-25T15:42:47;29.00;99.90
19152;DHT22;9708;53.114;9.388;2022-08-25T15:45:15;29.00;99.90
19152;DHT22;9708;53.114;9.388;2022-08-25T15:47:43;28.90;99.90
19152;DHT22;9708;53.114;9.388;2022-08-25T15:50:12;28.80;99.90
19152;DHT22;9708;53.114;9.388;2022-08-25T15:52:40;28.70;99.90
19152;DHT22;9708;53.114;9.388;2022-08-25T15:55:08;28.70;99.90
19152;DHT22;9708;53.114;9.388;2022-08-25T15:57:35;29.00;99.90
19152;DHT22;9708;53.114;9.388;2022-08-25T16:00:04;28.90;99.90
19152;DHT22;9708;53.114;9.388;2022-08-25T16:02:34;28.90;99.90
19152;DHT22;9708;53.114;9.388;2022-08-25T16:05:01;28.80;99.90
19152;DHT22;9708;53.114;9.388;2022-08-25T16:07:28;28.60;99.90
19152;DHT22;9708;53.114;9.388;2022-08-25T16:09:54;28.70;99.90
19152;DHT22;9708;53.114;9.388;2022-08-25T16:12:22;28.70;99.90
19152;DHT22;9708;53.114;9.388;2022-08-25T16:14:49;28.60;99.90
19152;DHT22;9708;53.114;9.388;2022-08-25T16:17:17;28.70;99.90
19152;DHT22;9708;53.114;9.388;2022-08-25T16:19:45;28.80;99.90
19152;DHT22;9708;53.114;9.388;2022-08-25T16:22:12;28.70;99.90
19152;DHT22;9708;53.114;9.388;2022-08-25T16:24:40;28.70;99.90